sensor_id;sensor_type;location;lat;lon;timestamp;P1;durP1;ratioP1;P2;durP2;ratioP2
44276;SDS011;29973;43.742;1.236;2022-10-17T00:00:35;12.82;;;5.07;;
44276;SDS011;29973;43.742;1.236;2022-10-17T00:03:01;9.80;;;4.57;;
44276;SDS011;29973;43.742;1.236;2022-10-17T00:05:27;14.30;;;5.30;;
44276;SDS011;29973;43.742;1.236;2022-10-17T00:07:53;14.77;;;4.22;;
44276;SDS011;29973;43.742;1.236;2022-10-17T00:10:19;15.40;;;4.43;;
44276;SDS011;29973;43.742;1.236;2022-10-17T00:12:45;12.85;;;5.35;;
44276;SDS011;29973;43.742;1.236;2022-10-17T00:15:14;11.63;;;4.43;;
44276;SDS011;29973;43.742;1.236;2022-10-17T00:17:41;12.25;;;4.13;;
44276;SDS011;29973;43.742;1.236;2022-10-17T00:20:07;13.20;;;4.47;;
44276;SDS011;29973;43.742;1.236;2022-10-17T00:22:33;14.50;;;5.00;;
44276;SDS011;29973;43.742;1.236;2022-10-17T00:24:58;12.57;;;4.53;;
44276;SDS011;29973;43.742;1.236;2022-10-17T00:27:24;9.27;;;4.03;;
44276;SDS011;29973;43.742;1.236;2022-10-17T00:29:50;13.52;;;4.20;;
44276;SDS011;29973;43.742;1.236;2022-10-17T00:32:16;9.55;;;3.90;;
44276;SDS011;29973;43.742;1.236;2022-10-17T00:34:43;14.13;;;4.60;;
44276;SDS011;29973;43.742;1.236;2022-10-17T00:37:09;15.48;;;4.60;;
44276;SDS011;29973;43.742;1.236;2022-10-17T00:39:35;14.23;;;4.95;;
44276;SDS011;29973;43.742;1.236;2022-10-17T00:42:01;13.10;;;5.13;;
44276;SDS011;29973;43.742;1.236;2022-10-17T00:46:56;10.50;;;4.00;;
44276;SDS011;29973;43.742;1.236;2022-10-17T00:49:27;19.13;;;4.45;;
44276;SDS011;29973;43.742;1.236;2022-10-17T00:51:56;9.38;;;4.20;;
44276;SDS011;29973;43.742;1.236;2022-10-17T00:54:26;11.23;;;4.50;;
44276;SDS011;29973;43.742;1.236;2022-10-17T00:56:57;10.88;;;3.83;;
44276;SDS011;29973;43.742;1.236;2022-10-17T00:59:24;11.23;;;4.45;;
44276;SDS011;29973;43.742;1.236;2022-10-17T01:01:59;16.23;;;4.53;;
44276;SDS011;29973;43.742;1.236;2022-10-17T01:04:28;14.00;;;4.95;;
44276;SDS011;29973;43.742;1.236;2022-10-17T01:06:54;12.25;;;4.80;;
44276;SDS011;29973;43.742;1.236;2022-10-17T01:09:19;14.98;;;5.10;;
44276;SDS011;29973;43.742;1.236;2022-10-17T01:11:55;16.40;;;5.32;;
44276;SDS011;29973;43.742;1.236;2022-10-17T01:32:01;10.90;;;4.78;;
44276;SDS011;29973;43.742;1.236;2022-10-17T01:34:50;16.20;;;5.45;;
44276;SDS011;29973;43.742;1.236;2022-10-17T01:37:31;8.77;;;4.40;;
44276;SDS011;29973;43.742;1.236;2022-10-17T01:42:58;14.43;;;6.00;;
44276;SDS011;29973;43.742;1.236;2022-10-17T01:45:32;11.30;;;4.85;;
44276;SDS011;29973;43.742;1.236;2022-10-17T01:48:08;10.80;;;5.10;;
44276;SDS011;29973;43.742;1.236;2022-10-17T01:50:45;21.58;;;5.30;;
44276;SDS011;29973;43.742;1.236;2022-10-17T01:53:23;15.43;;;4.80;;
44276;SDS011;29973;43.742;1.236;2022-10-17T01:55:54;11.95;;;4.70;;
44276;SDS011;29973;43.742;1.236;2022-10-17T01:58:25;12.88;;;4.63;;
44276;SDS011;29973;43.742;1.236;2022-10-17T02:00:55;12.90;;;4.75;;
44276;SDS011;29973;43.742;1.236;2022-10-17T02:03:25;14.90;;;4.80;;
44276;SDS011;29973;43.742;1.236;2022-10-17T02:05:52;15.50;;;4.38;;
44276;SDS011;29973;43.742;1.236;2022-10-17T02:08:39;12.13;;;4.50;;
44276;SDS011;29973;43.742;1.236;2022-10-17T02:11:16;11.57;;;4.65;;
44276;SDS011;29973;43.742;1.236;2022-10-17T02:16:28;12.93;;;4.90;;
44276;SDS011;29973;43.742;1.236;2022-10-17T02:22:18;14.63;;;4.93;;
44276;SDS011;29973;43.742;1.236;2022-10-17T02:24:57;10.77;;;4.53;;
44276;SDS011;29973;43.742;1.236;2022-10-17T02:32:46;15.68;;;4.03;;
44276;SDS011;29973;43.742;1.236;2022-10-17T02:35:18;13.27;;;4.30;;
44276;SDS011;29973;43.742;1.236;2022-10-17T02:37:46;12.38;;;4.28;;
44276;SDS011;29973;43.742;1.236;2022-10-17T02:40:13;11.40;;;3.53;;
44276;SDS011;29973;43.742;1.236;2022-10-17T02:42:43;19.92;;;4.90;;
44276;SDS011;29973;43.742;1.236;2022-10-17T02:45:10;8.95;;;3.85;;
44276;SDS011;29973;43.742;1.236;2022-10-17T02:50:38;14.32;;;4.20;;
44276;SDS011;29973;43.742;1.236;2022-10-17T02:53:16;12.05;;;3.97;;
44276;SDS011;29973;43.742;1.236;2022-10-17T02:55:55;15.43;;;3.97;;
44276;SDS011;29973;43.742;1.236;2022-10-17T02:58:29;12.57;;;3.60;;
44276;SDS011;29973;43.742;1.236;2022-10-17T03:00:57;11.52;;;3.58;;
44276;SDS011;29973;43.742;1.236;2022-10-17T03:03:25;9.43;;;3.58;;
44276;SDS011;29973;43.742;1.236;2022-10-17T03:05:52;8.38;;;3.33;;
44276;SDS011;29973;43.742;1.236;2022-10-17T03:08:19;23.08;;;4.10;;
44276;SDS011;29973;43.742;1.236;2022-10-17T03:10:45;13.05;;;3.83;;
44276;SDS011;29973;43.742;1.236;2022-10-17T03:13:12;10.50;;;3.13;;
44276;SDS011;29973;43.742;1.236;2022-10-17T03:15:38;8.93;;;3.83;;
44276;SDS011;29973;43.742;1.236;2022-10-17T03:18:04;10.70;;;3.92;;
44276;SDS011;29973;43.742;1.236;2022-10-17T03:20:29;13.50;;;3.63;;
44276;SDS011;29973;43.742;1.236;2022-10-17T03:22:55;8.88;;;3.25;;
44276;SDS011;29973;43.742;1.236;2022-10-17T03:25:21;10.85;;;4.20;;
44276;SDS011;29973;43.742;1.236;2022-10-17T03:27:47;16.40;;;3.60;;
44276;SDS011;29973;43.742;1.236;2022-10-17T03:30:14;13.60;;;3.88;;
44276;SDS011;29973;43.742;1.236;2022-10-17T03:32:39;13.63;;;3.22;;
44276;SDS011;29973;43.742;1.236;2022-10-17T03:35:05;10.80;;;3.58;;
44276;SDS011;29973;43.742;1.236;2022-10-17T03:37:31;13.40;;;4.22;;
44276;SDS011;29973;43.742;1.236;2022-10-17T03:39:57;13.65;;;3.92;;
44276;SDS011;29973;43.742;1.236;2022-10-17T03:42:22;13.18;;;3.63;;
44276;SDS011;29973;43.742;1.236;2022-10-17T03:44:48;12.45;;;3.25;;
44276;SDS011;29973;43.742;1.236;2022-10-17T03:47:14;13.95;;;4.05;;
44276;SDS011;29973;43.742;1.236;2022-10-17T03:49:39;15.20;;;3.85;;
44276;SDS011;29973;43.742;1.236;2022-10-17T03:52:05;10.63;;;3.38;;
44276;SDS011;29973;43.742;1.236;2022-10-17T03:54:36;13.90;;;3.40;;
44276;SDS011;29973;43.742;1.236;2022-10-17T03:57:01;10.52;;;3.22;;
44276;SDS011;29973;43.742;1.236;2022-10-17T03:59:27;11.30;;;2.85;;
44276;SDS011;29973;43.742;1.236;2022-10-17T04:01:53;10.68;;;2.75;;
44276;SDS011;29973;43.742;1.236;2022-10-17T04:04:18;11.70;;;3.17;;
44276;SDS011;29973;43.742;1.236;2022-10-17T04:06:44;7.57;;;2.83;;
44276;SDS011;29973;43.742;1.236;2022-10-17T04:09:10;12.82;;;3.35;;
44276;SDS011;29973;43.742;1.236;2022-10-17T04:11:35;13.90;;;4.13;;
44276;SDS011;29973;43.742;1.236;2022-10-17T04:14:01;12.95;;;3.80;;
44276;SDS011;29973;43.742;1.236;2022-10-17T04:16:27;15.60;;;3.63;;
44276;SDS011;29973;43.742;1.236;2022-10-17T04:18:56;9.50;;;3.40;;
44276;SDS011;29973;43.742;1.236;2022-10-17T04:21:23;14.23;;;3.92;;
44276;SDS011;29973;43.742;1.236;2022-10-17T04:23:54;12.27;;;3.97;;
44276;SDS011;29973;43.742;1.236;2022-10-17T04:26:21;17.05;;;4.35;;
44276;SDS011;29973;43.742;1.236;2022-10-17T04:28:47;11.90;;;3.65;;
44276;SDS011;29973;43.742;1.236;2022-10-17T04:31:13;14.95;;;3.40;;
44276;SDS011;29973;43.742;1.236;2022-10-17T04:33:39;15.55;;;3.55;;
44276;SDS011;29973;43.742;1.236;2022-10-17T04:36:07;9.60;;;3.70;;
44276;SDS011;29973;43.742;1.236;2022-10-17T04:38:36;19.50;;;3.88;;
44276;SDS011;29973;43.742;1.236;2022-10-17T04:41:03;16.58;;;4.03;;
44276;SDS011;29973;43.742;1.236;2022-10-17T04:43:32;13.77;;;3.55;;
44276;SDS011;29973;43.742;1.236;2022-10-17T04:46:03;14.55;;;3.92;;
44276;SDS011;29973;43.742;1.236;2022-10-17T04:48:30;10.70;;;4.00;;
44276;SDS011;29973;43.742;1.236;2022-10-17T04:50:57;16.58;;;4.05;;
44276;SDS011;29973;43.742;1.236;2022-10-17T04:53:24;11.55;;;3.28;;
44276;SDS011;29973;43.742;1.236;2022-10-17T04:55:50;19.15;;;3.97;;
44276;SDS011;29973;43.742;1.236;2022-10-17T04:58:16;17.98;;;3.60;;
44276;SDS011;29973;43.742;1.236;2022-10-17T05:00:42;10.55;;;3.30;;
44276;SDS011;29973;43.742;1.236;2022-10-17T05:03:08;12.55;;;4.05;;
44276;SDS011;29973;43.742;1.236;2022-10-17T05:05:38;11.00;;;3.50;;
44276;SDS011;29973;43.742;1.236;2022-10-17T05:08:05;8.33;;;3.97;;
44276;SDS011;29973;43.742;1.236;2022-10-17T05:10:35;11.40;;;3.20;;
44276;SDS011;29973;43.742;1.236;2022-10-17T05:13:10;11.73;;;3.80;;
44276;SDS011;29973;43.742;1.236;2022-10-17T05:15:36;12.20;;;3.70;;
44276;SDS011;29973;43.742;1.236;2022-10-17T05:18:03;12.15;;;3.78;;
44276;SDS011;29973;43.742;1.236;2022-10-17T05:20:30;10.95;;;3.65;;
44276;SDS011;29973;43.742;1.236;2022-10-17T05:22:59;10.40;;;3.08;;
44276;SDS011;29973;43.742;1.236;2022-10-17T05:25:26;12.32;;;3.92;;
44276;SDS011;29973;43.742;1.236;2022-10-17T05:27:52;16.77;;;3.50;;
44276;SDS011;29973;43.742;1.236;2022-10-17T05:30:17;10.35;;;3.58;;
44276;SDS011;29973;43.742;1.236;2022-10-17T05:32:43;18.65;;;4.10;;
44276;SDS011;29973;43.742;1.236;2022-10-17T05:35:09;11.35;;;3.83;;
44276;SDS011;29973;43.742;1.236;2022-10-17T05:37:35;12.80;;;3.47;;
44276;SDS011;29973;43.742;1.236;2022-10-17T05:40:00;12.98;;;4.35;;
44276;SDS011;29973;43.742;1.236;2022-10-17T05:42:26;10.60;;;4.00;;
44276;SDS011;29973;43.742;1.236;2022-10-17T05:44:52;15.15;;;3.90;;
44276;SDS011;29973;43.742;1.236;2022-10-17T05:47:18;12.52;;;3.88;;
44276;SDS011;29973;43.742;1.236;2022-10-17T05:49:43;15.27;;;3.33;;
44276;SDS011;29973;43.742;1.236;2022-10-17T05:52:09;14.60;;;3.33;;
44276;SDS011;29973;43.742;1.236;2022-10-17T05:54:35;12.35;;;3.80;;
44276;SDS011;29973;43.742;1.236;2022-10-17T05:57:00;15.43;;;4.15;;
44276;SDS011;29973;43.742;1.236;2022-10-17T05:59:26;12.65;;;3.72;;
44276;SDS011;29973;43.742;1.236;2022-10-17T06:01:53;13.80;;;3.78;;
44276;SDS011;29973;43.742;1.236;2022-10-17T06:04:18;11.70;;;3.63;;
44276;SDS011;29973;43.742;1.236;2022-10-17T06:06:45;17.38;;;4.20;;
44276;SDS011;29973;43.742;1.236;2022-10-17T06:09:10;9.10;;;3.10;;
44276;SDS011;29973;43.742;1.236;2022-10-17T06:11:36;12.90;;;4.20;;
44276;SDS011;29973;43.742;1.236;2022-10-17T06:14:02;11.07;;;3.05;;
44276;SDS011;29973;43.742;1.236;2022-10-17T06:16:28;13.40;;;3.92;;
44276;SDS011;29973;43.742;1.236;2022-10-17T06:18:53;9.32;;;3.38;;
44276;SDS011;29973;43.742;1.236;2022-10-17T06:21:23;13.15;;;3.88;;
44276;SDS011;29973;43.742;1.236;2022-10-17T06:23:51;7.55;;;3.42;;
44276;SDS011;29973;43.742;1.236;2022-10-17T06:26:17;14.23;;;3.70;;
44276;SDS011;29973;43.742;1.236;2022-10-17T06:28:43;18.40;;;3.70;;
44276;SDS011;29973;43.742;1.236;2022-10-17T06:31:10;13.75;;;3.90;;
44276;SDS011;29973;43.742;1.236;2022-10-17T06:33:37;9.77;;;3.60;;
44276;SDS011;29973;43.742;1.236;2022-10-17T06:36:04;18.55;;;4.15;;
44276;SDS011;29973;43.742;1.236;2022-10-17T06:38:32;13.20;;;4.05;;
44276;SDS011;29973;43.742;1.236;2022-10-17T06:41:05;13.80;;;4.20;;
44276;SDS011;29973;43.742;1.236;2022-10-17T06:43:33;10.85;;;3.67;;
44276;SDS011;29973;43.742;1.236;2022-10-17T06:46:02;17.50;;;3.90;;
44276;SDS011;29973;43.742;1.236;2022-10-17T06:48:28;13.30;;;3.78;;
44276;SDS011;29973;43.742;1.236;2022-10-17T06:50:57;8.30;;;3.90;;
44276;SDS011;29973;43.742;1.236;2022-10-17T06:53:26;12.82;;;3.35;;
44276;SDS011;29973;43.742;1.236;2022-10-17T06:55:52;16.27;;;3.83;;
44276;SDS011;29973;43.742;1.236;2022-10-17T06:58:19;11.02;;;3.58;;
44276;SDS011;29973;43.742;1.236;2022-10-17T07:00:45;12.88;;;3.65;;
44276;SDS011;29973;43.742;1.236;2022-10-17T07:03:11;12.27;;;3.35;;
44276;SDS011;29973;43.742;1.236;2022-10-17T07:05:36;13.55;;;3.28;;
44276;SDS011;29973;43.742;1.236;2022-10-17T07:08:05;10.45;;;3.63;;
44276;SDS011;29973;43.742;1.236;2022-10-17T07:10:31;14.95;;;3.63;;
44276;SDS011;29973;43.742;1.236;2022-10-17T07:13:02;7.88;;;3.25;;
44276;SDS011;29973;43.742;1.236;2022-10-17T07:15:28;14.63;;;4.07;;
44276;SDS011;29973;43.742;1.236;2022-10-17T07:17:53;11.32;;;3.67;;
44276;SDS011;29973;43.742;1.236;2022-10-17T07:20:19;14.05;;;3.92;;
44276;SDS011;29973;43.742;1.236;2022-10-17T07:22:45;11.13;;;3.20;;
44276;SDS011;29973;43.742;1.236;2022-10-17T07:25:10;13.82;;;3.33;;
44276;SDS011;29973;43.742;1.236;2022-10-17T07:27:36;10.00;;;3.17;;
44276;SDS011;29973;43.742;1.236;2022-10-17T07:30:02;14.10;;;4.28;;
44276;SDS011;29973;43.742;1.236;2022-10-17T07:32:28;15.02;;;3.28;;
44276;SDS011;29973;43.742;1.236;2022-10-17T07:34:53;14.27;;;3.47;;
44276;SDS011;29973;43.742;1.236;2022-10-17T07:37:19;16.27;;;3.92;;
44276;SDS011;29973;43.742;1.236;2022-10-17T07:39:45;13.95;;;3.45;;
44276;SDS011;29973;43.742;1.236;2022-10-17T07:42:10;11.55;;;3.72;;
44276;SDS011;29973;43.742;1.236;2022-10-17T07:44:38;15.90;;;3.47;;
44276;SDS011;29973;43.742;1.236;2022-10-17T07:47:04;11.45;;;3.30;;
44276;SDS011;29973;43.742;1.236;2022-10-17T07:49:29;14.10;;;3.47;;
44276;SDS011;29973;43.742;1.236;2022-10-17T07:51:55;15.85;;;3.83;;
44276;SDS011;29973;43.742;1.236;2022-10-17T07:54:21;16.02;;;3.88;;
44276;SDS011;29973;43.742;1.236;2022-10-17T07:56:47;14.23;;;3.90;;
44276;SDS011;29973;43.742;1.236;2022-10-17T07:59:15;14.65;;;3.60;;
44276;SDS011;29973;43.742;1.236;2022-10-17T08:01:41;8.38;;;3.28;;
44276;SDS011;29973;43.742;1.236;2022-10-17T08:04:08;19.45;;;4.38;;
44276;SDS011;29973;43.742;1.236;2022-10-17T08:06:33;9.32;;;3.47;;
44276;SDS011;29973;43.742;1.236;2022-10-17T08:08:59;14.05;;;3.90;;
44276;SDS011;29973;43.742;1.236;2022-10-17T08:11:25;13.73;;;3.35;;
44276;SDS011;29973;43.742;1.236;2022-10-17T08:13:51;8.57;;;3.25;;
44276;SDS011;29973;43.742;1.236;2022-10-17T08:16:17;11.20;;;3.42;;
44276;SDS011;29973;43.742;1.236;2022-10-17T08:18:43;14.85;;;3.42;;
44276;SDS011;29973;43.742;1.236;2022-10-17T08:21:09;18.98;;;3.75;;
44276;SDS011;29973;43.742;1.236;2022-10-17T08:23:37;11.73;;;2.97;;
44276;SDS011;29973;43.742;1.236;2022-10-17T08:26:04;10.00;;;3.35;;
44276;SDS011;29973;43.742;1.236;2022-10-17T08:28:34;10.00;;;2.90;;
44276;SDS011;29973;43.742;1.236;2022-10-17T08:31:05;14.65;;;3.45;;
44276;SDS011;29973;43.742;1.236;2022-10-17T08:33:33;7.45;;;3.13;;
44276;SDS011;29973;43.742;1.236;2022-10-17T08:35:59;11.30;;;3.00;;
44276;SDS011;29973;43.742;1.236;2022-10-17T08:38:27;8.68;;;3.10;;
44276;SDS011;29973;43.742;1.236;2022-10-17T08:40:54;15.57;;;2.95;;
44276;SDS011;29973;43.742;1.236;2022-10-17T08:45:59;11.43;;;2.92;;
44276;SDS011;29973;43.742;1.236;2022-10-17T08:48:27;10.70;;;3.25;;
44276;SDS011;29973;43.742;1.236;2022-10-17T08:50:58;12.52;;;3.85;;
44276;SDS011;29973;43.742;1.236;2022-10-17T08:56:01;13.43;;;3.78;;
44276;SDS011;29973;43.742;1.236;2022-10-17T08:58:32;19.15;;;3.85;;
44276;SDS011;29973;43.742;1.236;2022-10-17T09:03:28;9.77;;;3.42;;
44276;SDS011;29973;43.742;1.236;2022-10-17T09:09:10;7.68;;;2.65;;
44276;SDS011;29973;43.742;1.236;2022-10-17T09:12:11;11.73;;;3.63;;
44276;SDS011;29973;43.742;1.236;2022-10-17T09:20:04;13.90;;;3.03;;
44276;SDS011;29973;43.742;1.236;2022-10-17T09:22:41;13.88;;;3.30;;
44276;SDS011;29973;43.742;1.236;2022-10-17T09:25:23;14.75;;;3.22;;
44276;SDS011;29973;43.742;1.236;2022-10-17T09:27:52;11.95;;;3.40;;
44276;SDS011;29973;43.742;1.236;2022-10-17T09:33:09;7.32;;;3.00;;
44276;SDS011;29973;43.742;1.236;2022-10-17T09:35:37;15.35;;;3.72;;
44276;SDS011;29973;43.742;1.236;2022-10-17T09:38:06;19.55;;;3.60;;
44276;SDS011;29973;43.742;1.236;2022-10-17T09:40:38;13.93;;;3.85;;
44276;SDS011;29973;43.742;1.236;2022-10-17T09:43:04;11.25;;;3.17;;
44276;SDS011;29973;43.742;1.236;2022-10-17T09:45:37;14.77;;;3.65;;
44276;SDS011;29973;43.742;1.236;2022-10-17T09:48:26;14.40;;;3.45;;
44276;SDS011;29973;43.742;1.236;2022-10-17T09:50:53;11.48;;;3.08;;
44276;SDS011;29973;43.742;1.236;2022-10-17T09:53:29;17.38;;;3.75;;
44276;SDS011;29973;43.742;1.236;2022-10-17T09:56:05;15.35;;;3.90;;
44276;SDS011;29973;43.742;1.236;2022-10-17T09:58:43;16.58;;;3.80;;
44276;SDS011;29973;43.742;1.236;2022-10-17T10:01:20;10.68;;;3.20;;
44276;SDS011;29973;43.742;1.236;2022-10-17T10:04:06;14.07;;;4.07;;
44276;SDS011;29973;43.742;1.236;2022-10-17T10:06:38;13.73;;;3.45;;
44276;SDS011;29973;43.742;1.236;2022-10-17T10:09:04;16.15;;;3.30;;
44276;SDS011;29973;43.742;1.236;2022-10-17T10:11:54;10.85;;;3.47;;
44276;SDS011;29973;43.742;1.236;2022-10-17T10:14:23;17.73;;;4.00;;
44276;SDS011;29973;43.742;1.236;2022-10-17T10:17:00;11.10;;;3.58;;
44276;SDS011;29973;43.742;1.236;2022-10-17T10:19:32;11.98;;;3.83;;
44276;SDS011;29973;43.742;1.236;2022-10-17T10:22:00;11.40;;;4.35;;
44276;SDS011;29973;43.742;1.236;2022-10-17T10:27:00;23.88;;;3.95;;
44276;SDS011;29973;43.742;1.236;2022-10-17T10:29:29;11.82;;;3.60;;
44276;SDS011;29973;43.742;1.236;2022-10-17T10:34:49;14.95;;;3.53;;
44276;SDS011;29973;43.742;1.236;2022-10-17T10:37:25;17.88;;;3.78;;
44276;SDS011;29973;43.742;1.236;2022-10-17T10:40:01;15.65;;;4.30;;
44276;SDS011;29973;43.742;1.236;2022-10-17T10:45:17;12.73;;;4.05;;
44276;SDS011;29973;43.742;1.236;2022-10-17T10:50:21;19.15;;;4.68;;
44276;SDS011;29973;43.742;1.236;2022-10-17T10:55:59;22.52;;;3.88;;
44276;SDS011;29973;43.742;1.236;2022-10-17T11:01:03;17.23;;;4.93;;
44276;SDS011;29973;43.742;1.236;2022-10-17T11:06:46;19.40;;;5.60;;
44276;SDS011;29973;43.742;1.236;2022-10-17T11:09:34;17.42;;;5.47;;
44276;SDS011;29973;43.742;1.236;2022-10-17T11:12:19;14.07;;;4.13;;
44276;SDS011;29973;43.742;1.236;2022-10-17T11:17:27;14.98;;;5.57;;
44276;SDS011;29973;43.742;1.236;2022-10-17T11:22:31;11.45;;;4.13;;
44276;SDS011;29973;43.742;1.236;2022-10-17T11:25:13;13.25;;;4.47;;
44276;SDS011;29973;43.742;1.236;2022-10-17T11:27:41;16.45;;;4.13;;
44276;SDS011;29973;43.742;1.236;2022-10-17T11:30:08;13.35;;;4.22;;
44276;SDS011;29973;43.742;1.236;2022-10-17T11:32:39;17.98;;;4.53;;
44276;SDS011;29973;43.742;1.236;2022-10-17T11:35:14;10.75;;;4.13;;
44276;SDS011;29973;43.742;1.236;2022-10-17T11:40:40;14.48;;;4.38;;
44276;SDS011;29973;43.742;1.236;2022-10-17T11:43:20;14.20;;;4.15;;
44276;SDS011;29973;43.742;1.236;2022-10-17T11:46:12;16.00;;;3.95;;
44276;SDS011;29973;43.742;1.236;2022-10-17T11:51:27;15.13;;;4.18;;
44276;SDS011;29973;43.742;1.236;2022-10-17T12:02:24;13.27;;;3.60;;
44276;SDS011;29973;43.742;1.236;2022-10-17T12:10:30;14.13;;;3.47;;
44276;SDS011;29973;43.742;1.236;2022-10-17T12:14:09;10.68;;;3.60;;
44276;SDS011;29973;43.742;1.236;2022-10-17T12:18:43;14.07;;;3.42;;
44276;SDS011;29973;43.742;1.236;2022-10-17T12:21:12;11.70;;;3.08;;
44276;SDS011;29973;43.742;1.236;2022-10-17T12:23:38;9.82;;;3.10;;
44276;SDS011;29973;43.742;1.236;2022-10-17T12:26:06;10.70;;;3.60;;
44276;SDS011;29973;43.742;1.236;2022-10-17T12:31:06;11.55;;;2.95;;
44276;SDS011;29973;43.742;1.236;2022-10-17T12:54:57;11.75;;;2.72;;
44276;SDS011;29973;43.742;1.236;2022-10-17T12:57:49;7.72;;;2.65;;
44276;SDS011;29973;43.742;1.236;2022-10-17T13:00:26;10.23;;;2.97;;
44276;SDS011;29973;43.742;1.236;2022-10-17T13:03:08;10.25;;;3.03;;
44276;SDS011;29973;43.742;1.236;2022-10-17T13:05:54;8.90;;;2.95;;
44276;SDS011;29973;43.742;1.236;2022-10-17T13:10:54;21.13;;;3.22;;
44276;SDS011;29973;43.742;1.236;2022-10-17T13:16:05;12.50;;;3.03;;
44276;SDS011;29973;43.742;1.236;2022-10-17T13:18:31;13.05;;;2.85;;
44276;SDS011;29973;43.742;1.236;2022-10-17T13:20:59;11.43;;;3.15;;
44276;SDS011;29973;43.742;1.236;2022-10-17T13:23:33;10.55;;;2.83;;
44276;SDS011;29973;43.742;1.236;2022-10-17T13:26:04;13.30;;;2.70;;
44276;SDS011;29973;43.742;1.236;2022-10-17T13:28:39;13.95;;;3.15;;
44276;SDS011;29973;43.742;1.236;2022-10-17T13:31:06;11.02;;;2.38;;
44276;SDS011;29973;43.742;1.236;2022-10-17T13:33:50;11.05;;;2.80;;
44276;SDS011;29973;43.742;1.236;2022-10-17T13:36:21;15.48;;;2.90;;
44276;SDS011;29973;43.742;1.236;2022-10-17T13:38:46;12.25;;;2.95;;
44276;SDS011;29973;43.742;1.236;2022-10-17T13:41:12;12.95;;;3.03;;
44276;SDS011;29973;43.742;1.236;2022-10-17T13:43:40;13.02;;;2.55;;
44276;SDS011;29973;43.742;1.236;2022-10-17T13:46:06;17.23;;;3.03;;
44276;SDS011;29973;43.742;1.236;2022-10-17T13:48:40;14.13;;;3.33;;
44276;SDS011;29973;43.742;1.236;2022-10-17T13:51:07;9.35;;;2.60;;
44276;SDS011;29973;43.742;1.236;2022-10-17T13:53:34;10.85;;;3.15;;
44276;SDS011;29973;43.742;1.236;2022-10-17T13:58:48;13.23;;;3.10;;
44276;SDS011;29973;43.742;1.236;2022-10-17T14:01:23;15.68;;;3.22;;
44276;SDS011;29973;43.742;1.236;2022-10-17T14:03:50;15.82;;;2.92;;
44276;SDS011;29973;43.742;1.236;2022-10-17T14:08:56;9.05;;;2.25;;
44276;SDS011;29973;43.742;1.236;2022-10-17T14:11:54;9.73;;;2.35;;
44276;SDS011;29973;43.742;1.236;2022-10-17T14:14:25;9.68;;;3.00;;
44276;SDS011;29973;43.742;1.236;2022-10-17T14:16:52;14.70;;;2.78;;
44276;SDS011;29973;43.742;1.236;2022-10-17T14:19:25;9.23;;;2.63;;
44276;SDS011;29973;43.742;1.236;2022-10-17T14:21:54;15.13;;;3.08;;
44276;SDS011;29973;43.742;1.236;2022-10-17T14:24:37;14.38;;;3.10;;
44276;SDS011;29973;43.742;1.236;2022-10-17T14:27:23;13.57;;;2.80;;
44276;SDS011;29973;43.742;1.236;2022-10-17T14:32:49;14.43;;;3.03;;
44276;SDS011;29973;43.742;1.236;2022-10-17T14:35:18;9.02;;;2.80;;
44276;SDS011;29973;43.742;1.236;2022-10-17T14:37:45;11.25;;;3.20;;
44276;SDS011;29973;43.742;1.236;2022-10-17T14:40:14;17.30;;;3.30;;
44276;SDS011;29973;43.742;1.236;2022-10-17T14:42:40;12.73;;;3.13;;
44276;SDS011;29973;43.742;1.236;2022-10-17T14:45:07;11.20;;;2.95;;
44276;SDS011;29973;43.742;1.236;2022-10-17T14:47:37;13.90;;;2.97;;
44276;SDS011;29973;43.742;1.236;2022-10-17T14:52:31;15.57;;;2.88;;
44276;SDS011;29973;43.742;1.236;2022-10-17T14:54:59;11.77;;;2.50;;
44276;SDS011;29973;43.742;1.236;2022-10-17T14:57:40;12.68;;;2.80;;
44276;SDS011;29973;43.742;1.236;2022-10-17T15:00:12;13.68;;;3.22;;
44276;SDS011;29973;43.742;1.236;2022-10-17T15:02:40;10.30;;;3.20;;
44276;SDS011;29973;43.742;1.236;2022-10-17T15:05:05;9.48;;;2.92;;
44276;SDS011;29973;43.742;1.236;2022-10-17T15:07:31;13.05;;;2.90;;
44276;SDS011;29973;43.742;1.236;2022-10-17T15:09:57;19.40;;;3.13;;
44276;SDS011;29973;43.742;1.236;2022-10-17T15:12:23;10.77;;;2.70;;
44276;SDS011;29973;43.742;1.236;2022-10-17T15:14:50;11.27;;;2.72;;
44276;SDS011;29973;43.742;1.236;2022-10-17T15:17:17;11.68;;;3.17;;
44276;SDS011;29973;43.742;1.236;2022-10-17T15:19:45;20.80;;;3.55;;
44276;SDS011;29973;43.742;1.236;2022-10-17T15:22:12;14.35;;;3.45;;
44276;SDS011;29973;43.742;1.236;2022-10-17T15:24:38;13.48;;;3.10;;
44276;SDS011;29973;43.742;1.236;2022-10-17T15:29:40;15.63;;;3.10;;
44276;SDS011;29973;43.742;1.236;2022-10-17T15:32:06;14.77;;;3.08;;
44276;SDS011;29973;43.742;1.236;2022-10-17T15:34:32;15.15;;;3.40;;
44276;SDS011;29973;43.742;1.236;2022-10-17T15:36:57;15.20;;;3.15;;
44276;SDS011;29973;43.742;1.236;2022-10-17T15:39:23;15.43;;;3.30;;
44276;SDS011;29973;43.742;1.236;2022-10-17T15:41:49;18.27;;;3.35;;
44276;SDS011;29973;43.742;1.236;2022-10-17T15:44:14;12.85;;;2.85;;
44276;SDS011;29973;43.742;1.236;2022-10-17T15:46:40;9.88;;;2.88;;
44276;SDS011;29973;43.742;1.236;2022-10-17T15:49:09;13.05;;;3.40;;
44276;SDS011;29973;43.742;1.236;2022-10-17T15:51:36;20.98;;;3.70;;
44276;SDS011;29973;43.742;1.236;2022-10-17T15:54:03;20.08;;;3.22;;
44276;SDS011;29973;43.742;1.236;2022-10-17T15:59:02;12.50;;;3.40;;
44276;SDS011;29973;43.742;1.236;2022-10-17T16:01:29;12.23;;;2.72;;
44276;SDS011;29973;43.742;1.236;2022-10-17T16:03:57;13.77;;;2.78;;
44276;SDS011;29973;43.742;1.236;2022-10-17T16:06:23;14.30;;;3.03;;
44276;SDS011;29973;43.742;1.236;2022-10-17T16:08:50;9.27;;;3.13;;
44276;SDS011;29973;43.742;1.236;2022-10-17T16:11:26;10.15;;;2.78;;
44276;SDS011;29973;43.742;1.236;2022-10-17T16:13:53;10.95;;;2.67;;
44276;SDS011;29973;43.742;1.236;2022-10-17T16:16:22;17.60;;;3.20;;
44276;SDS011;29973;43.742;1.236;2022-10-17T16:18:48;11.77;;;2.97;;
44276;SDS011;29973;43.742;1.236;2022-10-17T16:21:14;13.52;;;2.88;;
44276;SDS011;29973;43.742;1.236;2022-10-17T16:23:41;16.73;;;3.17;;
44276;SDS011;29973;43.742;1.236;2022-10-17T16:26:07;11.95;;;3.10;;
44276;SDS011;29973;43.742;1.236;2022-10-17T16:28:33;10.88;;;2.95;;
44276;SDS011;29973;43.742;1.236;2022-10-17T16:30:59;20.13;;;3.75;;
44276;SDS011;29973;43.742;1.236;2022-10-17T16:33:26;13.80;;;3.67;;
44276;SDS011;29973;43.742;1.236;2022-10-17T16:35:52;11.20;;;3.00;;
44276;SDS011;29973;43.742;1.236;2022-10-17T16:38:17;15.02;;;2.97;;
44276;SDS011;29973;43.742;1.236;2022-10-17T16:40:43;12.60;;;3.08;;
44276;SDS011;29973;43.742;1.236;2022-10-17T16:43:12;11.52;;;3.08;;
44276;SDS011;29973;43.742;1.236;2022-10-17T16:45:38;14.05;;;3.78;;
44276;SDS011;29973;43.742;1.236;2022-10-17T16:48:04;14.23;;;3.47;;
44276;SDS011;29973;43.742;1.236;2022-10-17T16:50:30;11.10;;;3.55;;
44276;SDS011;29973;43.742;1.236;2022-10-17T16:52:59;15.07;;;3.40;;
44276;SDS011;29973;43.742;1.236;2022-10-17T16:55:27;16.70;;;3.60;;
44276;SDS011;29973;43.742;1.236;2022-10-17T16:57:53;12.55;;;3.08;;
44276;SDS011;29973;43.742;1.236;2022-10-17T17:00:19;11.90;;;3.60;;
44276;SDS011;29973;43.742;1.236;2022-10-17T17:02:48;14.98;;;3.75;;
44276;SDS011;29973;43.742;1.236;2022-10-17T17:05:14;11.63;;;3.42;;
44276;SDS011;29973;43.742;1.236;2022-10-17T17:07:40;18.10;;;4.18;;
44276;SDS011;29973;43.742;1.236;2022-10-17T17:10:06;10.48;;;3.60;;
44276;SDS011;29973;43.742;1.236;2022-10-17T17:12:33;20.23;;;3.90;;
44276;SDS011;29973;43.742;1.236;2022-10-17T17:14:59;11.85;;;3.83;;